Time;durP1;ratioP1;P1;durP2;ratioP2;P2;SDS_P1;SDS_P2;PMS_P1;PMS_P2;Temp;Humidity;BMP_temperature;BMP_pressure;BME280_temperature;BME280_humidity;BME280_pressure;Samples;Min_cycle;Max_cycle;Signal;HPM_P1;HPM_P2
2021/11/27 00:02:11;;;;;;;0.10;0.10;;;;;;;;;;5039500;28;20099;-93
2021/11/27 00:04:37;;;;;;;0.10;0.10;;;;;;;;;;5039382;28;20503;-92
2021/11/27 00:07:03;;;;;;;0.10;0.10;;;;;;;;;;5056138;28;20040;-92
2021/11/27 00:09:29;;;;;;;0.10;0.10;;;;;;;;;;5039214;28;20463;-92
2021/11/27 00:11:55;;;;;;;0.10;0.10;;;;;;;;;;5039065;28;20045;-91
2021/11/27 00:14:21;;;;;;;0.10;0.10;;;;;;;;;;5038854;28;20052;-92
2021/11/27 00:16:47;;;;;;;0.10;0.10;;;;;;;;;;5055762;28;20037;-92
2021/11/27 00:19:13;;;;;;;0.00;0.00;;;;;;;;;;5055504;28;20067;-92
2021/11/27 00:21:39;;;;;;;0.10;0.10;;;;;;;;;;5038987;28;20480;-92
2021/11/27 00:24:05;;;;;;;0.10;0.10;;;;;;;;;;5039205;28;20044;-92
2021/11/27 00:26:31;;;;;;;0.10;0.10;;;;;;;;;;5039121;28;20051;-91
2021/11/27 00:28:57;;;;;;;0.10;0.10;;;;;;;;;;5038543;28;20439;-92
2021/11/27 00:31:24;;;;;;;0.10;0.10;;;;;;;;;;5039013;28;20044;-91
2021/11/27 00:33:50;;;;;;;0.10;0.10;;;;;;;;;;5038716;28;20059;-91
2021/11/27 00:36:19;;;;;;;0.00;0.00;;;;;;;;;;5039496;28;20036;-91
2021/11/27 00:38:45;;;;;;;0.10;0.10;;;;;;;;;;5038390;28;20454;-92
2021/11/27 00:41:11;;;;;;;0.10;0.10;;;;;;;;;;5038259;28;20037;-92
2021/11/27 00:43:37;;;;;;;0.10;0.10;;;;;;;;;;5039017;28;20052;-92
2021/11/27 00:46:04;;;;;;;0.05;0.05;;;;;;;;;;5038627;28;20361;-91
2021/11/27 00:48:30;;;;;;;0.10;0.10;;;;;;;;;;5038953;28;20438;-91
2021/11/27 00:50:57;;;;;;;0.10;0.10;;;;;;;;;;5055142;28;20033;-91
2021/11/27 00:53:23;;;;;;;0.10;0.10;;;;;;;;;;5038360;28;20048;-90
2021/11/27 00:55:49;;;;;;;0.00;0.00;;;;;;;;;;5038166;28;20443;-90
2021/11/27 00:58:15;;;;;;;0.00;0.00;;;;;;;;;;5054426;28;20041;-91
2021/11/27 01:00:45;;;;;;;0.10;0.10;;;;;;;;;;5038406;28;20114;-90
2021/11/27 01:03:15;;;;;;;0.10;0.10;;;;;;;;;;5054746;28;20427;-91
2021/11/27 01:05:40;;;;;;;0.10;0.10;;;;;;;;;;5038087;28;20041;-92
2021/11/27 01:08:06;;;;;;;0.10;0.10;;;;;;;;;;5038090;28;20476;-91
2021/11/27 01:10:34;;;;;;;0.10;0.10;;;;;;;;;;5040399;28;20048;-92
2021/11/27 01:13:00;;;;;;;0.00;0.00;;;;;;;;;;5058294;28;20051;-92
2021/11/27 01:15:27;;;;;;;0.10;0.10;;;;;;;;;;5058499;28;20448;-92
2021/11/27 01:17:53;;;;;;;0.10;0.10;;;;;;;;;;5058025;28;20039;-92
2021/11/27 01:20:20;;;;;;;0.10;0.10;;;;;;;;;;5058291;28;20093;-91
2021/11/27 01:22:46;;;;;;;0.30;0.10;;;;;;;;;;5058217;28;20036;-92
2021/11/27 01:25:13;;;;;;;0.10;0.10;;;;;;;;;;5057865;28;20502;-92
2021/11/27 01:27:39;;;;;;;0.10;0.10;;;;;;;;;;5058065;28;20040;-92
2021/11/27 01:30:09;;;;;;;0.10;0.10;;;;;;;;;;5074628;28;20043;-91
2021/11/27 01:32:35;;;;;;;0.10;0.10;;;;;;;;;;5058293;28;20032;-92
2021/11/27 01:35:01;;;;;;;0.10;0.10;;;;;;;;;;5057872;28;20106;-91
2021/11/27 01:37:27;;;;;;;0.10;0.10;;;;;;;;;;5057328;28;20542;-91
2021/11/27 01:39:53;;;;;;;0.10;0.10;;;;;;;;;;5057484;28;20071;-91
2021/11/27 01:42:19;;;;;;;0.10;0.10;;;;;;;;;;5057495;28;20083;-90
2021/11/27 01:44:45;;;;;;;0.10;0.10;;;;;;;;;;5057409;28;20040;-91
2021/11/27 01:47:11;;;;;;;0.10;0.10;;;;;;;;;;5056992;28;20040;-90
2021/11/27 01:49:37;;;;;;;0.10;0.10;;;;;;;;;;5057334;28;20094;-91
2021/11/27 01:52:03;;;;;;;0.10;0.10;;;;;;;;;;5057302;28;20062;-90
2021/11/27 01:54:29;;;;;;;0.10;0.10;;;;;;;;;;5057385;28;20044;-90
2021/11/27 01:56:56;;;;;;;0.10;0.10;;;;;;;;;;5073920;28;20426;-90
2021/11/27 01:59:23;;;;;;;0.10;0.10;;;;;;;;;;5057038;28;20496;-91
2021/11/27 02:01:49;;;;;;;0.00;0.00;;;;;;;;;;5057269;28;20089;-90
2021/11/27 02:04:15;;;;;;;0.10;0.10;;;;;;;;;;5057210;28;20127;-91
2021/11/27 02:06:41;;;;;;;0.10;0.10;;;;;;;;;;5056980;28;20052;-90
2021/11/27 02:09:09;;;;;;;0.05;0.05;;;;;;;;;;5057418;28;20059;-90
2021/11/27 02:11:36;;;;;;;0.10;0.10;;;;;;;;;;5056755;28;20164;-90
2021/11/27 02:14:02;;;;;;;0.10;0.10;;;;;;;;;;5057058;28;20173;-90
2021/11/27 02:16:28;;;;;;;0.10;0.10;;;;;;;;;;5056980;28;20501;-89
2021/11/27 02:18:54;;;;;;;0.10;0.10;;;;;;;;;;5057208;28;20032;-90
2021/11/27 02:21:21;;;;;;;0.10;0.10;;;;;;;;;;5059259;28;20506;-90
2021/11/27 02:23:47;;;;;;;0.10;0.10;;;;;;;;;;5061168;28;20042;-89
2021/11/27 02:26:13;;;;;;;0.10;0.10;;;;;;;;;;5060703;28;20497;-90
2021/11/27 02:28:40;;;;;;;0.10;0.10;;;;;;;;;;5060921;28;20372;-89
2021/11/27 02:31:06;;;;;;;0.10;0.10;;;;;;;;;;5060832;28;20075;-91
2021/11/27 02:33:32;;;;;;;0.10;0.10;;;;;;;;;;5060613;28;20062;-90
2021/11/27 02:35:58;;;;;;;0.10;0.10;;;;;;;;;;5060455;28;20042;-90
2021/11/27 02:38:24;;;;;;;0.10;0.10;;;;;;;;;;5060696;28;20040;-90
2021/11/27 02:40:51;;;;;;;0.10;0.10;;;;;;;;;;5060974;28;20044;-91
2021/11/27 02:43:17;;;;;;;0.10;0.10;;;;;;;;;;5077196;28;20046;-90
2021/11/27 02:45:43;;;;;;;0.10;0.10;;;;;;;;;;5060324;28;20036;-90
2021/11/27 02:48:09;;;;;;;0.10;0.10;;;;;;;;;;5060535;28;20479;-90
2021/11/27 02:50:35;;;;;;;0.10;0.10;;;;;;;;;;5060166;28;20040;-90
2021/11/27 02:53:01;;;;;;;0.10;0.10;;;;;;;;;;5060599;28;20062;-90
2021/11/27 02:55:27;;;;;;;0.10;0.10;;;;;;;;;;5060074;28;20036;-90
2021/11/27 02:57:55;;;;;;;0.10;0.10;;;;;;;;;;5060023;28;20110;-90
2021/11/27 03:00:21;;;;;;;0.10;0.10;;;;;;;;;;5060393;28;20118;-90
2021/11/27 03:02:47;;;;;;;0.10;0.10;;;;;;;;;;5060027;28;20040;-90
2021/11/27 03:05:13;;;;;;;0.08;0.08;;;;;;;;;;5060085;28;20140;-89
2021/11/27 03:07:39;;;;;;;0.10;0.10;;;;;;;;;;5060044;28;20048;-90
2021/11/27 03:10:06;;;;;;;0.10;0.10;;;;;;;;;;5060006;28;20055;-90
2021/11/27 03:12:32;;;;;;;0.10;0.10;;;;;;;;;;5059684;28;20052;-90
2021/11/27 03:14:58;;;;;;;0.10;0.10;;;;;;;;;;5060064;28;20075;-90
2021/11/27 03:17:25;;;;;;;0.10;0.10;;;;;;;;;;5060024;28;20036;-90
2021/11/27 03:19:51;;;;;;;0.10;0.10;;;;;;;;;;5060005;28;20483;-91
2021/11/27 03:22:19;;;;;;;0.10;0.10;;;;;;;;;;5060235;28;20138;-91
2021/11/27 03:24:45;;;;;;;0.30;0.30;;;;;;;;;;5076513;28;20050;-90
2021/11/27 03:27:11;;;;;;;0.28;0.28;;;;;;;;;;5060386;28;20080;-91
2021/11/27 03:29:37;;;;;;;0.10;0.10;;;;;;;;;;5059700;28;20119;-90
2021/11/27 03:32:07;;;;;;;0.10;0.10;;;;;;;;;;5059014;28;20321;-91
2021/11/27 03:34:33;;;;;;;0.10;0.10;;;;;;;;;;5059414;28;20044;-90
2021/11/27 03:36:59;;;;;;;0.10;0.10;;;;;;;;;;5059565;28;20040;-90
2021/11/27 03:39:25;;;;;;;0.20;0.20;;;;;;;;;;5059799;28;20036;-91
2021/11/27 03:41:51;;;;;;;0.10;0.10;;;;;;;;;;5059817;28;20082;-90
2021/11/27 03:44:17;;;;;;;0.10;0.10;;;;;;;;;;5059458;28;20051;-91
2021/11/27 03:46:43;;;;;;;0.00;0.00;;;;;;;;;;5059577;28;20040;-92
2021/11/27 03:49:09;;;;;;;0.10;0.10;;;;;;;;;;5060085;28;20090;-91
2021/11/27 03:51:35;;;;;;;0.30;0.17;;;;;;;;;;5059481;28;20044;-91
2021/11/27 03:54:01;;;;;;;0.03;0.03;;;;;;;;;;5059433;28;20057;-91
2021/11/27 03:56:29;;;;;;;0.38;0.38;;;;;;;;;;5059361;28;20403;-91
2021/11/27 03:58:56;;;;;;;0.10;0.10;;;;;;;;;;5059347;28;20039;-92
2021/11/27 04:01:22;;;;;;;0.47;0.10;;;;;;;;;;5059797;28;20084;-92
2021/11/27 04:03:48;;;;;;;0.10;0.10;;;;;;;;;;5059378;28;20440;-90
2021/11/27 04:06:14;;;;;;;0.10;0.10;;;;;;;;;;5059669;28;20403;-91
2021/11/27 04:08:40;;;;;;;0.10;0.10;;;;;;;;;;5059108;28;20044;-91
2021/11/27 04:11:07;;;;;;;0.10;0.10;;;;;;;;;;5059196;28;20097;-91
2021/11/27 04:13:34;;;;;;;0.10;0.10;;;;;;;;;;5058898;28;20085;-91
2021/11/27 04:16:00;;;;;;;0.10;0.10;;;;;;;;;;5058747;28;20073;-91
2021/11/27 04:18:26;;;;;;;0.10;0.10;;;;;;;;;;5059065;28;20036;-91
2021/11/27 04:20:52;;;;;;;0.30;0.30;;;;;;;;;;5059196;28;20032;-92
2021/11/27 04:23:18;;;;;;;0.10;0.10;;;;;;;;;;5059079;28;20036;-91
2021/11/27 04:25:44;;;;;;;0.10;0.10;;;;;;;;;;5058871;28;20040;-94
2021/11/27 04:28:10;;;;;;;0.10;0.10;;;;;;;;;;5041878;28;20093;-90
2021/11/27 04:30:36;;;;;;;0.10;0.10;;;;;;;;;;5058597;28;20051;-91
2021/11/27 04:33:02;;;;;;;0.10;0.10;;;;;;;;;;5059153;28;20040;-91
2021/11/27 04:35:28;;;;;;;0.10;0.10;;;;;;;;;;5058571;28;20040;-91
2021/11/27 04:37:54;;;;;;;0.10;0.10;;;;;;;;;;5058609;28;20036;-92
2021/11/27 04:40:20;;;;;;;0.10;0.10;;;;;;;;;;5058805;28;20071;-91
2021/11/27 04:42:46;;;;;;;0.10;0.10;;;;;;;;;;5058856;28;20078;-92
2021/11/27 04:45:12;;;;;;;0.00;0.00;;;;;;;;;;5058464;28;20867;-91
2021/11/27 04:47:38;;;;;;;0.10;0.10;;;;;;;;;;5058244;28;20495;-91
2021/11/27 04:50:05;;;;;;;0.10;0.10;;;;;;;;;;5058393;28;20125;-92
2021/11/27 04:52:31;;;;;;;0.10;0.10;;;;;;;;;;5058356;28;20043;-92
2021/11/27 04:54:57;;;;;;;0.05;0.05;;;;;;;;;;5058393;28;20487;-91
2021/11/27 04:57:23;;;;;;;0.10;0.10;;;;;;;;;;5057964;28;20143;-89
2021/11/27 04:59:49;;;;;;;0.10;0.10;;;;;;;;;;5058179;28;20036;-91
2021/11/27 05:02:15;;;;;;;0.10;0.10;;;;;;;;;;5058333;28;20075;-91
2021/11/27 05:04:41;;;;;;;0.10;0.10;;;;;;;;;;5057922;28;20329;-89
2021/11/27 05:07:10;;;;;;;0.03;0.03;;;;;;;;;;5057529;28;20448;-90
2021/11/27 05:09:36;;;;;;;0.10;0.10;;;;;;;;;;5057909;28;20044;-90
2021/11/27 05:12:02;;;;;;;0.10;0.10;;;;;;;;;;5057148;28;20407;-90
2021/11/27 05:14:29;;;;;;;0.08;0.08;;;;;;;;;;5058290;28;20052;-91
2021/11/27 05:16:55;;;;;;;0.20;0.20;;;;;;;;;;5057809;28;20483;-91
2021/11/27 05:19:21;;;;;;;0.10;0.10;;;;;;;;;;5058142;28;20044;-93
2021/11/27 05:21:47;;;;;;;0.10;0.10;;;;;;;;;;5058053;28;20101;-91
2021/11/27 05:24:13;;;;;;;0.10;0.10;;;;;;;;;;5057675;28;20043;-91
2021/11/27 05:26:39;;;;;;;0.00;0.00;;;;;;;;;;5074362;28;20044;-91
2021/11/27 05:29:05;;;;;;;0.00;0.00;;;;;;;;;;5057655;28;20483;-91
2021/11/27 05:31:31;;;;;;;0.10;0.10;;;;;;;;;;5057428;28;20036;-91
2021/11/27 05:36:30;;;;;;;0.10;0.10;;;;;;;;;;5058099;28;20044;-90
2021/11/27 05:38:56;;;;;;;0.10;0.10;;;;;;;;;;5057469;28;20043;-89
2021/11/27 05:41:22;;;;;;;0.10;0.10;;;;;;;;;;5056896;28;20040;-90
2021/11/27 05:43:48;;;;;;;0.00;0.00;;;;;;;;;;5057439;28;20043;-90
2021/11/27 05:46:14;;;;;;;0.10;0.10;;;;;;;;;;5057150;28;20040;-90
2021/11/27 05:48:40;;;;;;;0.10;0.10;;;;;;;;;;5057107;28;20044;-90
2021/11/27 05:51:06;;;;;;;0.10;0.10;;;;;;;;;;5057486;28;20047;-90
2021/11/27 05:53:32;;;;;;;0.10;0.10;;;;;;;;;;5057115;28;20079;-89
2021/11/27 05:55:58;;;;;;;0.10;0.10;;;;;;;;;;5058922;28;20036;-90
2021/11/27 05:58:25;;;;;;;0.10;0.10;;;;;;;;;;5061434;28;20047;-94
2021/11/27 06:00:51;;;;;;;0.10;0.10;;;;;;;;;;5061893;28;20036;-91
2021/11/27 06:03:17;;;;;;;0.10;0.10;;;;;;;;;;5061313;28;20032;-91
2021/11/27 06:05:43;;;;;;;0.10;0.10;;;;;;;;;;5061199;28;20031;-89
2021/11/27 06:08:09;;;;;;;0.10;0.10;;;;;;;;;;5060827;28;20071;-90
2021/11/27 06:10:35;;;;;;;0.10;0.10;;;;;;;;;;5060799;28;20138;-90
2021/11/27 06:13:01;;;;;;;0.10;0.10;;;;;;;;;;5060877;28;20543;-91
2021/11/27 06:15:27;;;;;;;0.03;0.03;;;;;;;;;;5061046;28;20462;-88
2021/11/27 06:17:53;;;;;;;0.10;0.10;;;;;;;;;;5077312;28;20154;-89
2021/11/27 06:20:20;;;;;;;0.10;0.10;;;;;;;;;;5061004;28;20502;-88
2021/11/27 06:22:46;;;;;;;0.10;0.10;;;;;;;;;;5060610;28;20085;-91
2021/11/27 06:25:12;;;;;;;0.10;0.10;;;;;;;;;;5060658;28;20074;-90
2021/11/27 06:27:38;;;;;;;0.32;0.32;;;;;;;;;;5060133;28;20051;-90
2021/11/27 06:30:07;;;;;;;0.10;0.10;;;;;;;;;;5060698;28;20064;-90
2021/11/27 06:32:33;;;;;;;0.10;0.10;;;;;;;;;;5060535;28;20040;-91
2021/11/27 06:34:59;;;;;;;0.10;0.10;;;;;;;;;;5060566;28;20440;-91
2021/11/27 06:37:25;;;;;;;0.10;0.10;;;;;;;;;;5060228;28;20036;-90
2021/11/27 06:39:51;;;;;;;0.10;0.10;;;;;;;;;;5060469;28;20390;-90
2021/11/27 06:42:17;;;;;;;0.30;0.30;;;;;;;;;;5060353;28;20093;-89
2021/11/27 06:44:49;;;;;;;0.10;0.10;;;;;;;;;;5060042;28;20051;-89
2021/11/27 06:47:19;;;;;;;0.10;0.10;;;;;;;;;;5060970;28;20051;-89
2021/11/27 06:49:45;;;;;;;0.10;0.10;;;;;;;;;;5060036;28;20135;-88
2021/11/27 06:52:11;;;;;;;0.10;0.10;;;;;;;;;;5059863;28;20135;-87
2021/11/27 06:54:37;;;;;;;0.10;0.10;;;;;;;;;;5060186;28;20043;-87
2021/11/27 06:57:03;;;;;;;0.10;0.10;;;;;;;;;;5076426;28;20513;-86
2021/11/27 06:59:29;;;;;;;0.10;0.10;;;;;;;;;;5062470;28;20121;-90
2021/11/27 07:01:55;;;;;;;0.10;0.10;;;;;;;;;;5060149;28;20094;-87
2021/11/27 07:04:22;;;;;;;0.10;0.10;;;;;;;;;;5076195;28;20040;-86
2021/11/27 07:06:48;;;;;;;0.10;0.10;;;;;;;;;;5058286;28;20093;-86
2021/11/27 07:09:14;;;;;;;0.10;0.10;;;;;;;;;;5059626;28;20039;-86
2021/11/27 07:11:40;;;;;;;0.10;0.10;;;;;;;;;;5059377;28;20127;-86
2021/11/27 07:14:06;;;;;;;0.10;0.10;;;;;;;;;;5059576;28;20074;-87
2021/11/27 07:16:32;;;;;;;0.10;0.10;;;;;;;;;;5059324;28;20083;-87
2021/11/27 07:18:58;;;;;;;0.05;0.05;;;;;;;;;;5059720;28;20078;-85
2021/11/27 07:21:24;;;;;;;0.10;0.10;;;;;;;;;;5059386;28;20469;-87
2021/11/27 07:23:50;;;;;;;0.10;0.10;;;;;;;;;;5059713;28;20044;-91
2021/11/27 07:26:16;;;;;;;0.00;0.00;;;;;;;;;;5059876;28;20096;-89
2021/11/27 07:28:42;;;;;;;0.10;0.10;;;;;;;;;;5059501;28;20127;-90
2021/11/27 07:31:08;;;;;;;0.10;0.10;;;;;;;;;;5076168;28;20069;-90
2021/11/27 07:33:34;;;;;;;0.10;0.10;;;;;;;;;;5058784;28;20170;-91
2021/11/27 07:36:03;;;;;;;0.10;0.10;;;;;;;;;;5059650;28;20170;-91
2021/11/27 07:38:29;;;;;;;0.10;0.10;;;;;;;;;;5059858;28;20039;-91
2021/11/27 07:40:55;;;;;;;0.10;0.10;;;;;;;;;;5059829;28;20028;-91
2021/11/27 07:43:21;;;;;;;0.10;0.10;;;;;;;;;;5059557;28;20039;-91
2021/11/27 07:45:47;;;;;;;0.00;0.00;;;;;;;;;;5059556;28;20081;-90
2021/11/27 07:48:13;;;;;;;0.10;0.10;;;;;;;;;;5059038;28;20139;-91
2021/11/27 07:50:39;;;;;;;0.10;0.10;;;;;;;;;;5059521;28;20543;-91
2021/11/27 07:53:05;;;;;;;0.10;0.10;;;;;;;;;;5059244;28;20127;-90
2021/11/27 07:55:31;;;;;;;0.10;0.10;;;;;;;;;;5059640;28;20071;-90
2021/11/27 07:57:57;;;;;;;0.10;0.10;;;;;;;;;;5059514;28;20036;-91
2021/11/27 08:00:23;;;;;;;0.10;0.10;;;;;;;;;;5059335;28;20094;-91
2021/11/27 08:02:49;;;;;;;0.10;0.10;;;;;;;;;;5059197;28;20086;-91
2021/11/27 08:05:18;;;;;;;0.10;0.10;;;;;;;;;;5058976;28;20044;-91
2021/11/27 08:07:44;;;;;;;0.00;0.00;;;;;;;;;;5059780;28;20051;-91
2021/11/27 08:10:11;;;;;;;0.10;0.10;;;;;;;;;;5059408;28;20040;-91
2021/11/27 08:12:37;;;;;;;0.10;0.10;;;;;;;;;;5059003;28;20040;-91
2021/11/27 08:15:06;;;;;;;0.00;0.00;;;;;;;;;;5059123;28;20040;-91
2021/11/27 08:17:32;;;;;;;0.10;0.10;;;;;;;;;;5058763;28;20043;-91
2021/11/27 08:19:58;;;;;;;0.10;0.10;;;;;;;;;;5058824;28;20122;-91
2021/11/27 08:22:24;;;;;;;0.10;0.10;;;;;;;;;;5058737;28;20075;-91
2021/11/27 08:24:51;;;;;;;0.10;0.10;;;;;;;;;;5058979;28;20148;-91
2021/11/27 08:27:17;;;;;;;0.10;0.10;;;;;;;;;;5058836;28;20040;-92
2021/11/27 08:29:43;;;;;;;0.10;0.10;;;;;;;;;;5058634;28;20127;-91
2021/11/27 08:32:10;;;;;;;0.10;0.10;;;;;;;;;;5058505;28;20135;-92
2021/11/27 08:34:36;;;;;;;0.10;0.10;;;;;;;;;;5058847;28;20039;-91
2021/11/27 08:37:02;;;;;;;0.10;0.10;;;;;;;;;;5059372;28;20032;-90
2021/11/27 08:39:28;;;;;;;0.10;0.10;;;;;;;;;;5059969;28;20039;-91
2021/11/27 08:41:54;;;;;;;0.10;0.10;;;;;;;;;;5059377;28;20043;-91
2021/11/27 08:44:20;;;;;;;0.10;0.10;;;;;;;;;;5060845;28;20096;-91
2021/11/27 08:46:46;;;;;;;0.10;0.10;;;;;;;;;;5080109;28;20468;-91
2021/11/27 08:49:12;;;;;;;0.10;0.10;;;;;;;;;;5063185;28;20047;-91
2021/11/27 08:51:40;;;;;;;0.30;0.30;;;;;;;;;;5073605;28;20341;-91
2021/11/27 08:54:09;;;;;;;0.00;0.00;;;;;;;;;;5081144;28;20032;-91
2021/11/27 08:56:36;;;;;;;0.10;0.10;;;;;;;;;;5063124;28;20080;-91
2021/11/27 08:59:02;;;;;;;0.10;0.10;;;;;;;;;;5058500;28;20093;-91
2021/11/27 09:01:28;;;;;;;0.10;0.10;;;;;;;;;;5058353;28;20214;-91
2021/11/27 09:03:54;;;;;;;0.10;0.10;;;;;;;;;;5058294;28;20178;-91
2021/11/27 09:06:20;;;;;;;0.10;0.10;;;;;;;;;;5058626;28;20159;-91
2021/11/27 09:08:46;;;;;;;0.10;0.10;;;;;;;;;;5058191;28;20089;-91
2021/11/27 09:11:12;;;;;;;0.10;0.10;;;;;;;;;;5057911;28;20048;-91
2021/11/27 09:13:40;;;;;;;0.10;0.10;;;;;;;;;;5058042;28;20035;-91
2021/11/27 09:16:06;;;;;;;0.10;0.10;;;;;;;;;;5075027;28;20082;-91
2021/11/27 09:18:32;;;;;;;0.10;0.10;;;;;;;;;;5058310;28;20036;-92
2021/11/27 09:20:58;;;;;;;0.10;0.10;;;;;;;;;;5058105;28;20043;-91
2021/11/27 09:23:25;;;;;;;0.10;0.10;;;;;;;;;;5058305;28;20483;-92
2021/11/27 09:25:51;;;;;;;0.10;0.10;;;;;;;;;;5074651;28;20086;-91
2021/11/27 09:28:17;;;;;;;0.03;0.03;;;;;;;;;;5074451;28;20222;-91
2021/11/27 09:30:43;;;;;;;0.10;0.10;;;;;;;;;;5056930;28;20036;-91
2021/11/27 09:33:09;;;;;;;0.10;0.10;;;;;;;;;;5057723;28;20044;-91
2021/11/27 09:35:35;;;;;;;0.10;0.10;;;;;;;;;;5057651;28;20040;-91
2021/11/27 09:38:01;;;;;;;0.10;0.10;;;;;;;;;;5058212;28;20139;-92
2021/11/27 09:40:27;;;;;;;0.10;0.10;;;;;;;;;;5058332;28;20044;-92
2021/11/27 09:42:54;;;;;;;0.10;0.10;;;;;;;;;;5058030;28;20098;-91
2021/11/27 09:45:24;;;;;;;0.10;0.10;;;;;;;;;;5057801;28;20044;-91
2021/11/27 09:47:50;;;;;;;0.10;0.10;;;;;;;;;;5057751;28;20036;-92
2021/11/27 09:50:16;;;;;;;0.10;0.10;;;;;;;;;;5057631;28;20044;-92
2021/11/27 09:52:44;;;;;;;0.10;0.10;;;;;;;;;;5057889;28;20475;-91
2021/11/27 09:55:10;;;;;;;0.10;0.10;;;;;;;;;;5057843;28;20066;-91
2021/11/27 09:57:36;;;;;;;0.10;0.10;;;;;;;;;;5057727;28;20047;-91
2021/11/27 10:00:02;;;;;;;0.10;0.10;;;;;;;;;;5057896;28;20037;-91
2021/11/27 10:02:28;;;;;;;0.10;0.10;;;;;;;;;;5057671;28;20401;-92
2021/11/27 10:04:55;;;;;;;0.10;0.10;;;;;;;;;;5057542;28;20083;-91
2021/11/27 10:07:22;;;;;;;0.10;0.10;;;;;;;;;;5057340;28;20036;-92
2021/11/27 10:09:49;;;;;;;0.10;0.10;;;;;;;;;;5057457;28;20083;-91
2021/11/27 10:12:15;;;;;;;0.10;0.10;;;;;;;;;;5057521;28;20102;-92
2021/11/27 10:14:41;;;;;;;0.10;0.10;;;;;;;;;;5057555;28;20075;-91
2021/11/27 10:17:14;;;;;;;0.10;0.10;;;;;;;;;;5057566;28;20044;-91
2021/11/27 10:19:43;;;;;;;0.10;0.10;;;;;;;;;;5057638;28;20063;-91
2021/11/27 10:22:11;;;;;;;0.13;0.13;;;;;;;;;;5073920;28;20085;-91
2021/11/27 10:24:37;;;;;;;0.10;0.10;;;;;;;;;;5057511;28;20051;-91
2021/11/27 10:27:04;;;;;;;0.10;0.10;;;;;;;;;;5057420;28;20055;-91
2021/11/27 10:29:32;;;;;;;0.10;0.10;;;;;;;;;;5057242;28;20046;-91
2021/11/27 10:32:15;;;;;;;0.10;0.10;;;;;;;;;;5057640;28;20037;-91
2021/11/27 10:34:48;;;;;;;0.10;0.10;;;;;;;;;;5056980;28;20120;-91
2021/11/27 10:37:33;;;;;;;0.10;0.10;;;;;;;;;;5057364;28;20052;-91
2021/11/27 10:39:59;;;;;;;0.10;0.10;;;;;;;;;;5073706;28;20075;-91
2021/11/27 10:42:25;;;;;;;0.10;0.10;;;;;;;;;;5076404;28;20386;-91
2021/11/27 10:44:52;;;;;;;0.10;0.10;;;;;;;;;;5060840;28;20202;-91
2021/11/27 10:47:18;;;;;;;0.10;0.10;;;;;;;;;;5060907;28;20040;-91
2021/11/27 10:49:45;;;;;;;0.10;0.10;;;;;;;;;;5060599;28;20044;-91
2021/11/27 10:52:15;;;;;;;0.10;0.10;;;;;;;;;;5060763;28;20036;-91
2021/11/27 10:54:48;;;;;;;0.10;0.10;;;;;;;;;;5061095;28;20044;-91
2021/11/27 10:57:30;;;;;;;0.10;0.10;;;;;;;;;;5060683;28;20101;-91
2021/11/27 10:59:56;;;;;;;0.10;0.10;;;;;;;;;;5077191;28;20482;-91
2021/11/27 11:02:26;;;;;;;0.10;0.10;;;;;;;;;;5061097;28;20089;-91
2021/11/27 11:05:02;;;;;;;0.10;0.10;;;;;;;;;;5060373;28;20063;-91
2021/11/27 11:07:30;;;;;;;0.10;0.10;;;;;;;;;;5060382;28;20039;-91
2021/11/27 11:09:59;;;;;;;0.10;0.10;;;;;;;;;;5060242;28;20040;-91
2021/11/27 11:12:36;;;;;;;0.10;0.10;;;;;;;;;;5076474;28;20047;-91
2021/11/27 11:15:08;;;;;;;0.10;0.10;;;;;;;;;;5059935;28;20079;-90
2021/11/27 11:17:35;;;;;;;0.10;0.10;;;;;;;;;;5076804;28;20036;-91
2021/11/27 11:20:14;;;;;;;0.10;0.10;;;;;;;;;;5076894;28;20501;-91
2021/11/27 11:22:40;;;;;;;0.10;0.10;;;;;;;;;;5059929;28;20479;-91
2021/11/27 11:25:12;;;;;;;0.10;0.10;;;;;;;;;;5059866;28;20044;-91
2021/11/27 11:27:40;;;;;;;0.10;0.10;;;;;;;;;;5060617;28;20140;-91
2021/11/27 11:30:07;;;;;;;0.10;0.10;;;;;;;;;;5060446;28;20046;-91
2021/11/27 11:32:33;;;;;;;0.10;0.10;;;;;;;;;;5059914;28;20048;-91
2021/11/27 11:35:03;;;;;;;0.10;0.10;;;;;;;;;;5059782;28;20311;-91
2021/11/27 11:37:29;;;;;;;0.10;0.10;;;;;;;;;;5059879;28;20123;-92
2021/11/27 11:39:55;;;;;;;0.10;0.10;;;;;;;;;;5076397;28;20064;-91
2021/11/27 11:42:24;;;;;;;0.10;0.10;;;;;;;;;;5059679;28;20044;-92
2021/11/27 11:44:50;;;;;;;0.10;0.10;;;;;;;;;;5060088;28;20059;-92
2021/11/27 11:47:16;;;;;;;0.10;0.10;;;;;;;;;;5059461;28;20487;-92
2021/11/27 11:49:42;;;;;;;0.10;0.10;;;;;;;;;;5059533;28;20075;-91
2021/11/27 11:52:27;;;;;;;0.10;0.10;;;;;;;;;;5059420;28;20051;-92
2021/11/27 11:55:00;;;;;;;0.10;0.10;;;;;;;;;;5076060;28;20368;-92
2021/11/27 11:57:45;;;;;;;0.10;0.10;;;;;;;;;;5059231;28;20074;-91
2021/11/27 12:00:32;;;;;;;0.10;0.10;;;;;;;;;;5059778;28;20089;-91
2021/11/27 12:03:05;;;;;;;0.10;0.10;;;;;;;;;;5059357;28;20075;-91
2021/11/27 12:05:32;;;;;;;0.10;0.10;;;;;;;;;;5076213;28;20040;-92
2021/11/27 12:07:59;;;;;;;0.10;0.10;;;;;;;;;;5059559;28;20052;-92
2021/11/27 12:10:43;;;;;;;0.10;0.10;;;;;;;;;;5058995;28;20051;-91
2021/11/27 12:13:10;;;;;;;0.10;0.10;;;;;;;;;;5059026;28;20047;-91
2021/11/27 12:15:42;;;;;;;0.10;0.10;;;;;;;;;;5075909;28;20082;-92
2021/11/27 12:18:12;;;;;;;0.10;0.10;;;;;;;;;;5058999;28;20455;-91
2021/11/27 12:20:42;;;;;;;0.10;0.10;;;;;;;;;;5059218;28;20055;-92
2021/11/27 12:23:45;;;;;;;0.10;0.10;;;;;;;;;;5059066;28;20116;-91
2021/11/27 12:26:11;;;;;;;;;;;;;;;;;;5075935;28;20051;-92
2021/11/27 12:28:37;;;;;;;0.08;0.08;;;;;;;;;;5075241;28;19974;-91
2021/11/27 12:31:04;;;;;;;0.20;0.20;;;;;;;;;;5075246;28;20075;-91
2021/11/27 12:33:49;;;;;;;0.10;0.10;;;;;;;;;;5058552;28;20084;-91
2021/11/27 12:36:35;;;;;;;0.10;0.10;;;;;;;;;;5075140;28;20078;-91
2021/11/27 12:39:07;;;;;;;0.10;0.10;;;;;;;;;;5075304;28;20042;-91
2021/11/27 12:41:35;;;;;;;0.10;0.10;;;;;;;;;;5074800;28;20046;-91
2021/11/27 12:44:14;;;;;;;0.10;0.10;;;;;;;;;;5075113;28;20063;-91
2021/11/27 12:46:53;;;;;;;0.10;0.10;;;;;;;;;;5059345;28;20071;-91
2021/11/27 12:49:31;;;;;;;0.10;0.10;;;;;;;;;;5058285;28;20086;-91
2021/11/27 12:52:16;;;;;;;0.10;0.10;;;;;;;;;;5074637;28;20424;-91
2021/11/27 12:54:42;;;;;;;0.10;0.10;;;;;;;;;;5074855;28;20462;-92
2021/11/27 12:57:18;;;;;;;0.10;0.10;;;;;;;;;;5058038;28;20437;-92
2021/11/27 12:59:45;;;;;;;0.10;0.10;;;;;;;;;;5058550;28;20083;-92
2021/11/27 13:02:12;;;;;;;0.10;0.10;;;;;;;;;;5057994;28;20047;-91
2021/11/27 13:04:38;;;;;;;0.10;0.10;;;;;;;;;;5057067;28;20093;-91
2021/11/27 13:07:04;;;;;;;0.10;0.10;;;;;;;;;;5057890;28;20044;-92
2021/11/27 13:09:30;;;;;;;0.10;0.10;;;;;;;;;;5058157;28;20132;-92
2021/11/27 13:11:57;;;;;;;0.10;0.10;;;;;;;;;;5054594;28;20144;-91
2021/11/27 13:14:28;;;;;;;0.10;0.10;;;;;;;;;;5038247;28;20050;-92
2021/11/27 13:16:54;;;;;;;0.00;0.00;;;;;;;;;;5071263;28;20036;-91
2021/11/27 13:19:27;;;;;;;0.10;0.10;;;;;;;;;;5037969;28;20041;-91
2021/11/27 13:21:52;;;;;;;;;;;;;;;;;;5054956;28;20044;-91
2021/11/27 13:24:18;;;;;;;0.10;0.10;;;;;;;;;;5054429;28;19924;-90
2021/11/27 13:26:44;;;;;;;0.10;0.10;;;;;;;;;;5038005;28;20044;-91
2021/11/27 13:29:11;;;;;;;0.10;0.10;;;;;;;;;;5039745;28;20095;-91
2021/11/27 13:31:40;;;;;;;0.05;0.05;;;;;;;;;;5056913;28;20051;-90
2021/11/27 13:34:12;;;;;;;0.10;0.10;;;;;;;;;;5039809;28;20041;-91
2021/11/27 13:36:41;;;;;;;0.10;0.10;;;;;;;;;;5069503;28;20114;-90
2021/11/27 13:39:28;;;;;;;0.10;0.10;;;;;;;;;;5061690;28;20048;-91
2021/11/27 13:42:03;;;;;;;0.00;0.00;;;;;;;;;;5042809;28;20052;-91
2021/11/27 13:44:33;;;;;;;0.10;0.10;;;;;;;;;;5071120;28;20090;-91
2021/11/27 13:47:00;;;;;;;0.10;0.10;;;;;;;;;;5037982;28;20041;-91
2021/11/27 13:49:26;;;;;;;0.10;0.10;;;;;;;;;;5055150;28;20040;-90
2021/11/27 13:51:53;;;;;;;0.10;0.10;;;;;;;;;;5037761;28;20388;-90
2021/11/27 13:54:19;;;;;;;0.10;0.10;;;;;;;;;;5037920;28;20063;-91
2021/11/27 13:56:45;;;;;;;0.10;0.10;;;;;;;;;;5054195;28;20037;-91
2021/11/27 13:59:22;;;;;;;0.10;0.10;;;;;;;;;;5037551;28;20036;-91
2021/11/27 14:02:07;;;;;;;0.10;0.10;;;;;;;;;;5037873;28;20052;-91
2021/11/27 14:04:34;;;;;;;0.10;0.10;;;;;;;;;;5037959;28;20098;-91
2021/11/27 14:07:01;;;;;;;0.10;0.10;;;;;;;;;;5037874;28;20142;-91
2021/11/27 14:09:43;;;;;;;0.10;0.10;;;;;;;;;;5037720;28;20099;-91
2021/11/27 14:12:29;;;;;;;0.10;0.10;;;;;;;;;;5070881;28;20094;-91
2021/11/27 14:14:59;;;;;;;0.10;0.10;;;;;;;;;;5070938;28;20043;-91
2021/11/27 14:17:25;;;;;;;0.00;0.00;;;;;;;;;;5040350;28;20036;-91
2021/11/27 14:19:51;;;;;;;0.08;0.08;;;;;;;;;;5041793;28;20051;-91
2021/11/27 14:22:17;;;;;;;0.10;0.10;;;;;;;;;;5041425;28;20064;-91
2021/11/27 14:24:43;;;;;;;0.10;0.10;;;;;;;;;;5041596;28;20388;-91
2021/11/27 14:27:10;;;;;;;0.10;0.10;;;;;;;;;;5057905;28;20127;-91
2021/11/27 14:29:36;;;;;;;0.10;0.10;;;;;;;;;;5041644;28;20044;-91
2021/11/27 14:32:02;;;;;;;0.10;0.10;;;;;;;;;;5057888;28;20048;-90
2021/11/27 14:34:37;;;;;;;0.10;0.10;;;;;;;;;;5040793;28;20475;-90
2021/11/27 14:37:03;;;;;;;0.10;0.10;;;;;;;;;;5041458;28;20438;-91
2021/11/27 14:39:29;;;;;;;0.10;0.10;;;;;;;;;;5041334;28;20045;-91
2021/11/27 14:42:05;;;;;;;0.10;0.10;;;;;;;;;;5041340;28;20158;-91
2021/11/27 14:44:31;;;;;;;0.10;0.10;;;;;;;;;;5057983;28;20491;-91
2021/11/27 14:47:01;;;;;;;0.10;0.10;;;;;;;;;;5040747;28;20036;-91
2021/11/27 14:49:37;;;;;;;0.10;0.10;;;;;;;;;;5074135;28;20048;-91